Terminal Aerodrome Forecast
Issued by NWS Mt. Holly, NJ

Home | Current Version | Previous Version | Text Only | Print | Product List | Glossary On
Versions: 1 2 3 4 5 6 7 8 9 10 11 12 13 14 15 16 17 18 19 20 21 22 23 24 25
066
FTUS41 KPHI 031732
TAFRDG
TAF
KRDG 031732Z 0318/0418 07006KT P6SM BKN018 OVC025
     FM040100 07004KT 4SM BR OVC008
     FM040500 VRB03KT 2SM BR OVC004
      TEMPO 0408/0412 4SM -SHRA SCT004 OVC008
     FM041500 04006KT P6SM -SHRA BKN008 OVC025=

USA.gov is the U.S. government's official web portal to all federal, state and local government web resources and services.